Time;durP1;ratioP1;P1;durP2;ratioP2;P2;SDS_P1;SDS_P2;PMS_P1;PMS_P2;Temp;Humidity;BMP_temperature;BMP_pressure;BME280_temperature;BME280_humidity;BME280_pressure;Samples;Min_cycle;Max_cycle;Signal;HPM_P1;HPM_P2
2022/07/09 00:01:44;;;;;;;4.30;3.67;;;;;;;;;;5012826;28;20769;-53
2022/07/09 00:04:10;;;;;;;4.03;3.73;;;;;;;;;;5013172;28;20423;-54
2022/07/09 00:06:35;;;;;;;4.03;3.47;;;;;;;;;;5012889;28;20405;-53
2022/07/09 00:09:02;;;;;;;5.80;4.07;;;;;;;;;;5012706;28;20387;-55
2022/07/09 00:11:27;;;;;;;5.60;4.70;;;;;;;;;;5012477;28;20399;-55
2022/07/09 00:13:53;;;;;;;7.30;4.57;;;;;;;;;;5012934;28;20417;-53
2022/07/09 00:16:21;;;;;;;5.10;4.30;;;;;;;;;;5012905;28;20992;-54
2022/07/09 00:18:46;;;;;;;4.17;3.87;;;;;;;;;;5012671;28;20528;-53
2022/07/09 00:21:13;;;;;;;10.50;4.60;;;;;;;;;;5012478;28;20885;-54
2022/07/09 00:23:38;;;;;;;6.33;4.73;;;;;;;;;;5011432;28;20524;-54
2022/07/09 00:26:05;;;;;;;4.67;4.13;;;;;;;;;;5012205;28;20503;-52
2022/07/09 00:28:31;;;;;;;5.50;4.13;;;;;;;;;;5012255;28;20410;-53
2022/07/09 00:30:56;;;;;;;4.63;4.23;;;;;;;;;;5012669;28;20407;-52
2022/07/09 00:33:22;;;;;;;5.17;4.77;;;;;;;;;;5012294;28;20486;-53
2022/07/09 00:35:48;;;;;;;8.97;4.20;;;;;;;;;;5012583;28;20411;-52
2022/07/09 00:38:14;;;;;;;6.20;4.67;;;;;;;;;;5011885;28;20454;-52
2022/07/09 00:40:40;;;;;;;5.20;4.10;;;;;;;;;;5012412;28;20848;-52
2022/07/09 00:43:19;;;;;;;10.20;5.30;;;;;;;;;;5012138;28;20446;-53
2022/07/09 00:45:46;;;;;;;5.83;5.10;;;;;;;;;;5012226;28;20459;-53
2022/07/09 00:48:12;;;;;;;5.03;4.53;;;;;;;;;;5012437;28;20455;-52
2022/07/09 00:50:39;;;;;;;4.90;4.50;;;;;;;;;;5012226;28;20374;-53
2022/07/09 00:53:06;;;;;;;5.17;4.57;;;;;;;;;;5012002;28;20788;-54
2022/07/09 00:55:32;;;;;;;6.53;5.37;;;;;;;;;;5012234;28;20383;-53
2022/07/09 00:57:58;;;;;;;8.00;4.90;;;;;;;;;;5012025;28;20531;-53
2022/07/09 01:00:24;;;;;;;5.10;4.70;;;;;;;;;;5011799;28;20439;-53
2022/07/09 01:02:50;;;;;;;5.63;4.47;;;;;;;;;;5011007;28;20485;-53
2022/07/09 01:05:16;;;;;;;6.23;4.83;;;;;;;;;;5011318;28;20485;-52
2022/07/09 01:07:42;;;;;;;5.13;4.73;;;;;;;;;;5011733;28;20441;-53
2022/07/09 01:10:08;;;;;;;6.03;4.60;;;;;;;;;;5011612;28;20399;-56
2022/07/09 01:12:34;;;;;;;5.50;5.00;;;;;;;;;;5011729;28;20428;-56
2022/07/09 01:15:00;;;;;;;4.40;4.10;;;;;;;;;;5011776;28;20423;-57
2022/07/09 01:17:26;;;;;;;9.90;5.10;;;;;;;;;;5011856;28;20416;-56
2022/07/09 01:19:52;;;;;;;5.00;4.60;;;;;;;;;;5011538;28;20899;-56
2022/07/09 01:22:18;;;;;;;5.50;4.80;;;;;;;;;;5010944;28;20965;-56
2022/07/09 01:24:44;;;;;;;4.70;4.40;;;;;;;;;;5011606;28;20435;-56
2022/07/09 01:27:10;;;;;;;7.33;5.10;;;;;;;;;;5012309;28;20433;-55
2022/07/09 01:29:36;;;;;;;8.40;5.30;;;;;;;;;;5011950;28;20469;-56
2022/07/09 01:32:02;;;;;;;7.37;5.63;;;;;;;;;;5011240;28;20392;-56
2022/07/09 01:34:28;;;;;;;7.83;5.67;;;;;;;;;;5012381;28;20785;-56
2022/07/09 01:36:54;;;;;;;6.10;5.60;;;;;;;;;;5011983;28;20458;-56
2022/07/09 01:39:20;;;;;;;6.17;5.57;;;;;;;;;;5010581;28;20465;-56
2022/07/09 01:41:46;;;;;;;6.70;5.37;;;;;;;;;;4992140;28;20416;-56
2022/07/09 01:44:12;;;;;;;8.67;5.90;;;;;;;;;;4992221;28;20827;-56
2022/07/09 01:46:38;;;;;;;8.27;5.80;;;;;;;;;;4992137;28;20465;-56
2022/07/09 01:49:04;;;;;;;5.00;4.60;;;;;;;;;;4992168;28;20382;-56
2022/07/09 01:51:32;;;;;;;5.50;4.90;;;;;;;;;;4992107;28;20463;-56
2022/07/09 01:53:57;;;;;;;6.13;5.30;;;;;;;;;;4992514;28;20755;-56
2022/07/09 01:56:23;;;;;;;9.70;6.17;;;;;;;;;;4992213;28;20424;-56
2022/07/09 01:58:49;;;;;;;5.63;5.20;;;;;;;;;;4992204;28;20399;-56
2022/07/09 02:01:15;;;;;;;6.10;5.63;;;;;;;;;;4991881;28;20736;-56
2022/07/09 02:03:41;;;;;;;4.80;4.40;;;;;;;;;;4992048;28;20480;-56
2022/07/09 02:06:07;;;;;;;5.77;5.30;;;;;;;;;;4992426;28;20886;-55
2022/07/09 02:08:33;;;;;;;7.10;6.27;;;;;;;;;;4992054;28;20401;-56
2022/07/09 02:10:59;;;;;;;9.83;5.50;;;;;;;;;;4991873;28;20367;-56
2022/07/09 02:13:26;;;;;;;9.20;6.67;;;;;;;;;;4992096;28;20463;-56
2022/07/09 02:15:52;;;;;;;10.43;5.73;;;;;;;;;;4993351;28;20972;-56
2022/07/09 02:18:18;;;;;;;6.80;6.20;;;;;;;;;;5011419;28;20510;-56
2022/07/09 02:20:44;;;;;;;8.80;6.50;;;;;;;;;;5011315;28;20439;-56
2022/07/09 02:23:10;;;;;;;6.50;6.00;;;;;;;;;;5014494;28;20410;-55
2022/07/09 02:25:36;;;;;;;6.53;5.63;;;;;;;;;;5015313;28;20887;-56
2022/07/09 02:28:02;;;;;;;7.20;6.47;;;;;;;;;;5015108;28;20440;-56
2022/07/09 02:30:28;;;;;;;6.53;5.73;;;;;;;;;;5014760;28;20401;-55
2022/07/09 02:32:54;;;;;;;6.07;5.57;;;;;;;;;;5014944;28;20880;-56
2022/07/09 02:35:20;;;;;;;5.93;5.43;;;;;;;;;;5014986;28;20407;-56
2022/07/09 02:37:46;;;;;;;7.53;5.60;;;;;;;;;;5014778;28;20443;-56
2022/07/09 02:40:14;;;;;;;6.17;4.87;;;;;;;;;;5014696;28;20447;-56
2022/07/09 02:42:40;;;;;;;7.27;6.60;;;;;;;;;;5014919;28;20378;-56
2022/07/09 02:45:06;;;;;;;6.83;6.00;;;;;;;;;;5014820;28;20434;-56
2022/07/09 02:47:32;;;;;;;6.53;5.93;;;;;;;;;;5014623;28;20404;-56
2022/07/09 02:49:58;;;;;;;6.70;5.43;;;;;;;;;;5014675;28;20370;-56
2022/07/09 02:52:24;;;;;;;6.60;6.00;;;;;;;;;;5014679;28;20396;-56
2022/07/09 02:54:50;;;;;;;9.00;5.93;;;;;;;;;;5014804;28;20384;-56
2022/07/09 02:57:16;;;;;;;7.33;5.93;;;;;;;;;;5014687;28;20409;-56
2022/07/09 02:59:42;;;;;;;6.43;5.83;;;;;;;;;;5014352;28;20439;-56
2022/07/09 03:02:08;;;;;;;6.17;5.63;;;;;;;;;;5014266;28;20427;-56
2022/07/09 03:04:34;;;;;;;6.73;5.97;;;;;;;;;;5014618;28;20809;-56
2022/07/09 03:07:00;;;;;;;7.70;5.33;;;;;;;;;;5014350;28;20469;-56
2022/07/09 03:09:26;;;;;;;7.43;6.20;;;;;;;;;;5014310;28;20748;-56
2022/07/09 03:11:52;;;;;;;8.20;7.33;;;;;;;;;;5014176;28;20405;-56
2022/07/09 03:14:18;;;;;;;12.23;8.00;;;;;;;;;;5014316;28;20406;-56
2022/07/09 03:16:44;;;;;;;9.37;7.10;;;;;;;;;;5013923;28;20411;-56
2022/07/09 03:19:10;;;;;;;7.70;6.90;;;;;;;;;;5014266;28;20461;-56
2022/07/09 03:21:35;;;;;;;10.50;7.70;;;;;;;;;;5013912;28;20897;-55
2022/07/09 03:24:02;;;;;;;7.90;7.30;;;;;;;;;;5014074;28;20491;-56
2022/07/09 03:26:28;;;;;;;7.13;6.33;;;;;;;;;;5014080;28;20769;-56
2022/07/09 03:28:54;;;;;;;13.40;6.93;;;;;;;;;;5013967;28;20402;-55
2022/07/09 03:31:20;;;;;;;8.17;7.30;;;;;;;;;;5013624;28;20413;-56
2022/07/09 03:33:46;;;;;;;7.30;6.70;;;;;;;;;;5013115;28;20408;-56
2022/07/09 03:36:12;;;;;;;9.43;6.73;;;;;;;;;;5013896;28;20384;-56
2022/07/09 03:38:38;;;;;;;10.80;6.80;;;;;;;;;;5013628;28;20447;-56
2022/07/09 03:41:04;;;;;;;8.00;6.40;;;;;;;;;;5013572;28;20409;-56
2022/07/09 03:43:30;;;;;;;6.70;6.10;;;;;;;;;;5013645;28;20446;-56
2022/07/09 03:45:56;;;;;;;6.70;6.00;;;;;;;;;;5013658;28;20470;-56
2022/07/09 03:48:22;;;;;;;7.27;6.57;;;;;;;;;;5013646;28;20890;-56
2022/07/09 03:50:48;;;;;;;6.93;6.33;;;;;;;;;;5013434;28;20427;-56
2022/07/09 03:53:14;;;;;;;6.40;5.83;;;;;;;;;;5013624;28;20461;-55
2022/07/09 03:55:39;;;;;;;25.23;7.47;;;;;;;;;;5013565;28;20416;-55
2022/07/09 03:58:05;;;;;;;7.43;6.20;;;;;;;;;;5013457;28;20458;-56
2022/07/09 04:00:32;;;;;;;7.40;6.43;;;;;;;;;;5013109;28;20401;-56
2022/07/09 04:02:58;;;;;;;6.50;6.00;;;;;;;;;;5013643;28;20388;-56
2022/07/09 04:05:24;;;;;;;7.93;5.97;;;;;;;;;;5013349;28;20433;-56
2022/07/09 04:07:50;;;;;;;6.40;5.90;;;;;;;;;;5013317;28;20423;-56
2022/07/09 04:10:16;;;;;;;8.47;7.57;;;;;;;;;;5013406;28;20378;-56
2022/07/09 04:12:42;;;;;;;8.27;6.20;;;;;;;;;;5013068;28;20489;-56
2022/07/09 04:15:08;;;;;;;8.00;7.20;;;;;;;;;;5013185;28;20519;-56
2022/07/09 04:17:34;;;;;;;9.60;6.07;;;;;;;;;;5012980;28;20441;-56
2022/07/09 04:20:01;;;;;;;8.03;7.23;;;;;;;;;;5013062;28;20378;-56
2022/07/09 04:22:27;;;;;;;7.97;6.93;;;;;;;;;;5012850;28;20434;-56
2022/07/09 04:24:52;;;;;;;8.13;6.90;;;;;;;;;;5012903;28;20463;-56
2022/07/09 04:27:18;;;;;;;8.93;6.93;;;;;;;;;;5013048;28;20417;-56
2022/07/09 04:29:44;;;;;;;6.93;6.30;;;;;;;;;;5012982;28;20409;-56
2022/07/09 04:32:10;;;;;;;11.60;7.27;;;;;;;;;;5012672;28;20374;-56
2022/07/09 04:34:36;;;;;;;8.17;7.37;;;;;;;;;;5012804;28;20376;-55
2022/07/09 04:37:02;;;;;;;9.73;7.50;;;;;;;;;;5012603;28;20399;-56
2022/07/09 04:39:28;;;;;;;7.20;6.50;;;;;;;;;;5012667;28;20985;-56
2022/07/09 04:41:55;;;;;;;7.23;6.50;;;;;;;;;;5012390;28;20466;-56
2022/07/09 04:44:21;;;;;;;11.27;7.77;;;;;;;;;;5012577;28;20973;-56
2022/07/09 04:46:47;;;;;;;9.37;7.43;;;;;;;;;;5012607;28;20370;-56
2022/07/09 04:49:13;;;;;;;11.53;7.20;;;;;;;;;;5012670;28;20817;-56
2022/07/09 04:51:39;;;;;;;8.13;7.10;;;;;;;;;;5012310;28;20375;-56
2022/07/09 04:54:04;;;;;;;8.83;7.90;;;;;;;;;;5012568;28;20413;-56
2022/07/09 04:56:30;;;;;;;9.70;6.43;;;;;;;;;;5012286;28;20383;-55
2022/07/09 04:58:59;;;;;;;12.47;7.20;;;;;;;;;;5012358;28;20401;-56
2022/07/09 05:01:25;;;;;;;7.90;6.93;;;;;;;;;;5012166;28;20400;-56
2022/07/09 05:03:51;;;;;;;7.07;6.37;;;;;;;;;;5012327;28;20463;-55
2022/07/09 05:06:17;;;;;;;7.60;6.80;;;;;;;;;;5012555;28;20407;-56
2022/07/09 05:08:43;;;;;;;7.07;6.40;;;;;;;;;;5012249;28;20427;-56
2022/07/09 05:11:12;;;;;;;6.37;5.77;;;;;;;;;;5011892;28;20877;-56
2022/07/09 05:13:40;;;;;;;8.37;7.13;;;;;;;;;;5012377;28;20370;-56
2022/07/09 05:16:06;;;;;;;8.13;6.70;;;;;;;;;;5012155;28;20557;-56
2022/07/09 05:18:32;;;;;;;8.23;6.00;;;;;;;;;;5012178;28;20433;-56
2022/07/09 05:20:58;;;;;;;8.03;7.17;;;;;;;;;;5011928;28;20393;-56
2022/07/09 05:23:24;;;;;;;7.13;6.53;;;;;;;;;;5012085;28;20430;-56
2022/07/09 05:25:50;;;;;;;9.80;6.77;;;;;;;;;;5011862;28;20910;-56
2022/07/09 05:28:16;;;;;;;8.10;7.00;;;;;;;;;;5012044;28;20410;-56
2022/07/09 05:30:43;;;;;;;7.17;6.47;;;;;;;;;;5011936;28;20401;-55
2022/07/09 05:33:09;;;;;;;7.20;6.60;;;;;;;;;;5012153;28;20375;-56
2022/07/09 05:35:35;;;;;;;6.80;6.20;;;;;;;;;;5012134;28;20784;-56
2022/07/09 05:38:01;;;;;;;7.67;7.03;;;;;;;;;;5011803;28;20481;-56
2022/07/09 05:40:27;;;;;;;6.50;5.90;;;;;;;;;;5011539;28;20408;-56
2022/07/09 05:42:53;;;;;;;6.67;6.07;;;;;;;;;;5011914;28;20387;-56
2022/07/09 05:45:19;;;;;;;6.83;6.03;;;;;;;;;;5012092;28;20840;-56
2022/07/09 05:47:45;;;;;;;6.17;5.67;;;;;;;;;;5011888;28;20428;-56
2022/07/09 05:50:11;;;;;;;6.93;6.33;;;;;;;;;;5011612;28;20493;-56
2022/07/09 05:52:37;;;;;;;7.07;6.37;;;;;;;;;;5011860;28;20481;-56
2022/07/09 05:55:03;;;;;;;8.03;5.17;;;;;;;;;;5012209;28;20497;-56
2022/07/09 05:57:29;;;;;;;7.10;5.47;;;;;;;;;;5013731;28;20409;-56
2022/07/09 05:59:55;;;;;;;6.43;4.60;;;;;;;;;;5015620;28;20749;-56
2022/07/09 06:02:21;;;;;;;5.83;5.03;;;;;;;;;;5015648;28;20415;-56
2022/07/09 06:04:48;;;;;;;4.23;3.83;;;;;;;;;;5015561;28;20540;-56
2022/07/09 06:07:14;;;;;;;5.10;3.83;;;;;;;;;;5015569;28;20791;-56
2022/07/09 06:09:40;;;;;;;4.77;4.27;;;;;;;;;;5015327;28;20412;-56
2022/07/09 06:12:07;;;;;;;5.73;5.00;;;;;;;;;;5015208;28;20442;-56
2022/07/09 06:14:33;;;;;;;6.70;4.53;;;;;;;;;;5015505;28;20407;-56
2022/07/09 06:17:05;;;;;;;4.97;4.50;;;;;;;;;;5015177;28;20445;-56
2022/07/09 06:19:31;;;;;;;5.17;4.67;;;;;;;;;;5015439;28;20415;-56
2022/07/09 06:21:57;;;;;;;3.97;3.57;;;;;;;;;;5015084;28;20422;-56
2022/07/09 06:24:24;;;;;;;5.03;3.77;;;;;;;;;;5015074;28;20458;-56
2022/07/09 06:26:50;;;;;;;4.47;3.90;;;;;;;;;;5015304;28;20919;-56
2022/07/09 06:29:16;;;;;;;4.83;3.83;;;;;;;;;;5015169;28;20431;-56
2022/07/09 06:31:42;;;;;;;5.30;4.80;;;;;;;;;;5014944;28;20377;-56
2022/07/09 06:34:08;;;;;;;5.90;4.10;;;;;;;;;;5014998;28;20404;-56
2022/07/09 06:36:35;;;;;;;5.67;4.80;;;;;;;;;;5009974;28;20423;-56
2022/07/09 06:41:46;;;;;;;4.40;4.00;;;;;;;;;;5014604;28;20418;-55
2022/07/09 06:44:12;;;;;;;4.43;4.07;;;;;;;;;;5013342;28;20486;-56
2022/07/09 06:46:38;;;;;;;3.77;3.47;;;;;;;;;;5012773;28;20435;-56
2022/07/09 06:49:04;;;;;;;4.80;3.73;;;;;;;;;;5012546;28;20971;-55
2022/07/09 06:51:30;;;;;;;3.00;2.80;;;;;;;;;;5013272;28;20558;-55
2022/07/09 06:53:56;;;;;;;3.43;2.63;;;;;;;;;;5013515;28;20444;-57
2022/07/09 06:56:23;;;;;;;3.40;2.93;;;;;;;;;;5014565;28;20447;-56
2022/07/09 06:58:49;;;;;;;2.67;2.53;;;;;;;;;;5014154;28;20423;-56
2022/07/09 07:01:15;;;;;;;3.50;3.20;;;;;;;;;;5014043;28;20990;-56
2022/07/09 07:03:41;;;;;;;3.20;2.97;;;;;;;;;;5014291;28;20539;-56
2022/07/09 07:06:07;;;;;;;3.80;2.93;;;;;;;;;;5014203;28;20418;-56
2022/07/09 07:08:33;;;;;;;3.10;2.70;;;;;;;;;;5013183;28;20443;-56
2022/07/09 07:11:00;;;;;;;3.07;2.87;;;;;;;;;;5014716;28;20409;-57
2022/07/09 07:13:26;;;;;;;2.97;2.57;;;;;;;;;;5014121;28;20424;-56
2022/07/09 07:15:51;;;;;;;4.13;2.60;;;;;;;;;;5014284;28;20774;-56
2022/07/09 07:18:17;;;;;;;3.30;3.00;;;;;;;;;;5013732;28;20444;-57
2022/07/09 07:20:44;;;;;;;2.80;2.60;;;;;;;;;;5013858;28;20412;-57
2022/07/09 07:23:10;;;;;;;2.93;2.63;;;;;;;;;;5013463;28;20432;-56
2022/07/09 07:25:36;;;;;;;3.00;2.70;;;;;;;;;;5013835;28;20421;-56
2022/07/09 07:28:03;;;;;;;2.60;2.40;;;;;;;;;;5013694;28;20441;-57
2022/07/09 07:30:32;;;;;;;3.93;2.47;;;;;;;;;;5013660;28;20412;-57
2022/07/09 07:32:58;;;;;;;2.80;2.00;;;;;;;;;;5012959;28;20435;-57
2022/07/09 07:35:24;;;;;;;3.03;2.33;;;;;;;;;;5013809;28;20421;-56
2022/07/09 07:37:50;;;;;;;2.20;2.10;;;;;;;;;;5013507;28;20462;-57
2022/07/09 07:40:17;;;;;;;2.40;2.20;;;;;;;;;;5013373;28;20408;-57
2022/07/09 07:42:43;;;;;;;2.50;2.30;;;;;;;;;;5013357;28;20423;-57
2022/07/09 07:45:09;;;;;;;2.23;1.80;;;;;;;;;;5013548;28;20504;-56
2022/07/09 07:47:35;;;;;;;2.50;1.70;;;;;;;;;;5013114;28;20530;-57
2022/07/09 07:50:01;;;;;;;1.80;1.70;;;;;;;;;;5013422;28;20403;-56
2022/07/09 07:52:27;;;;;;;7.73;2.80;;;;;;;;;;5012899;28;20458;-56
2022/07/09 07:54:53;;;;;;;2.90;2.27;;;;;;;;;;5013498;28;20418;-57
2022/07/09 07:57:19;;;;;;;4.10;2.63;;;;;;;;;;5013193;28;20475;-57
2022/07/09 07:59:46;;;;;;;2.63;2.00;;;;;;;;;;5013310;28;20886;-57
2022/07/09 08:02:12;;;;;;;2.70;2.17;;;;;;;;;;5012950;28;20883;-57
2022/07/09 08:04:38;;;;;;;2.33;2.13;;;;;;;;;;5013308;28;20494;-57
2022/07/09 08:07:04;;;;;;;4.60;1.77;;;;;;;;;;5012837;28;20542;-57
2022/07/09 08:09:31;;;;;;;3.53;2.40;;;;;;;;;;5013025;28;20403;-57
2022/07/09 08:11:57;;;;;;;3.00;2.13;;;;;;;;;;5012884;28;20419;-57
2022/07/09 08:14:23;;;;;;;2.63;1.90;;;;;;;;;;5012994;28;20610;-57
2022/07/09 08:16:49;;;;;;;2.63;1.70;;;;;;;;;;5012809;28;20457;-57
2022/07/09 08:19:15;;;;;;;2.10;1.37;;;;;;;;;;5012605;28;20883;-57
2022/07/09 08:21:41;;;;;;;3.90;2.20;;;;;;;;;;5012613;28;20426;-57
2022/07/09 08:24:08;;;;;;;1.87;1.60;;;;;;;;;;5012850;28;20824;-57
2022/07/09 08:26:34;;;;;;;2.17;1.70;;;;;;;;;;5012499;28;20485;-57
2022/07/09 08:29:00;;;;;;;1.80;1.70;;;;;;;;;;5012668;28;20859;-57
2022/07/09 08:31:26;;;;;;;2.50;1.80;;;;;;;;;;5012608;28;20418;-58
2022/07/09 08:33:52;;;;;;;6.00;1.97;;;;;;;;;;5012524;28;20419;-57
2022/07/09 08:36:18;;;;;;;3.40;2.33;;;;;;;;;;5012646;28;20411;-57
2022/07/09 08:38:44;;;;;;;2.03;1.50;;;;;;;;;;5012278;28;20509;-57
2022/07/09 08:41:10;;;;;;;1.70;1.60;;;;;;;;;;5012182;28;20429;-57
2022/07/09 08:43:37;;;;;;;2.83;1.60;;;;;;;;;;5012421;28;20462;-56
2022/07/09 08:46:04;;;;;;;2.00;1.80;;;;;;;;;;5012221;28;20403;-57
2022/07/09 08:48:33;;;;;;;3.60;1.80;;;;;;;;;;5012424;28;20450;-58
2022/07/09 08:51:01;;;;;;;5.10;3.07;;;;;;;;;;5011897;28;20419;-57
2022/07/09 08:53:30;;;;;;;5.83;1.80;;;;;;;;;;5012514;28;20870;-57
2022/07/09 08:55:57;;;;;;;2.70;2.50;;;;;;;;;;5012175;28;20469;-58
2022/07/09 08:58:23;;;;;;;2.43;2.17;;;;;;;;;;5012122;28;20440;-57
2022/07/09 09:00:50;;;;;;;1.80;1.40;;;;;;;;;;5011968;28;20414;-58
2022/07/09 09:03:17;;;;;;;2.60;1.80;;;;;;;;;;5010861;28;20415;-58
2022/07/09 09:05:43;;;;;;;1.73;1.50;;;;;;;;;;5028505;28;20406;-58
2022/07/09 09:08:17;;;;;;;1.70;1.60;;;;;;;;;;5014342;28;20525;-57
2022/07/09 09:10:45;;;;;;;2.20;2.00;;;;;;;;;;5011656;28;20402;-58
2022/07/09 09:13:13;;;;;;;2.20;1.93;;;;;;;;;;5012007;28;20421;-57
2022/07/09 09:15:39;;;;;;;1.97;1.67;;;;;;;;;;5012225;28;20403;-57
2022/07/09 09:18:06;;;;;;;3.00;2.33;;;;;;;;;;5011783;28;20501;-57
2022/07/09 09:20:32;;;;;;;6.40;3.10;;;;;;;;;;5011660;28;20407;-57
2022/07/09 09:23:02;;;;;;;2.17;1.80;;;;;;;;;;5011778;28;20434;-57
2022/07/09 09:25:28;;;;;;;3.50;2.50;;;;;;;;;;5010918;28;20466;-57
2022/07/09 09:27:56;;;;;;;2.00;1.60;;;;;;;;;;5011507;28;20433;-57
2022/07/09 09:30:22;;;;;;;2.07;1.60;;;;;;;;;;5011534;28;20435;-57
2022/07/09 09:32:58;;;;;;;3.20;1.30;;;;;;;;;;5008552;28;20505;-57
2022/07/09 09:35:27;;;;;;;1.70;1.60;;;;;;;;;;5012598;28;20976;-53
2022/07/09 09:37:53;;;;;;;2.80;1.80;;;;;;;;;;5009996;28;20452;-53
2022/07/09 09:40:19;;;;;;;2.90;2.37;;;;;;;;;;5010236;28;20792;-54
2022/07/09 09:42:46;;;;;;;3.37;2.40;;;;;;;;;;5011553;28;20422;-54
2022/07/09 09:45:16;;;;;;;2.97;2.67;;;;;;;;;;5011490;28;20468;-54
2022/07/09 09:47:49;;;;;;;1.93;1.57;;;;;;;;;;5010348;28;20435;-53
2022/07/09 09:50:20;;;;;;;2.40;1.70;;;;;;;;;;5011241;28;20891;-53
2022/07/09 09:52:47;;;;;;;1.73;1.40;;;;;;;;;;5011776;28;20464;-54
2022/07/09 09:55:14;;;;;;;1.50;1.40;;;;;;;;;;5011565;28;20484;-53
2022/07/09 09:57:40;;;;;;;1.40;1.13;;;;;;;;;;5011623;28;20458;-53
2022/07/09 10:00:06;;;;;;;1.73;1.60;;;;;;;;;;5010982;28;20480;-55
2022/07/09 10:02:35;;;;;;;2.27;1.80;;;;;;;;;;5011670;28;20407;-53
2022/07/09 10:05:01;;;;;;;3.70;2.40;;;;;;;;;;5011054;28;20618;-55
2022/07/09 10:07:27;;;;;;;1.67;1.37;;;;;;;;;;5011472;28;20768;-54
2022/07/09 10:09:54;;;;;;;2.03;1.73;;;;;;;;;;5011156;28;20765;-55
2022/07/09 10:12:30;;;;;;;2.03;1.50;;;;;;;;;;5011459;28;20554;-53
2022/07/09 10:14:56;;;;;;;1.50;1.37;;;;;;;;;;5011235;28;20426;-54
2022/07/09 10:17:24;;;;;;;1.60;1.50;;;;;;;;;;5011233;28;20427;-55
2022/07/09 10:19:57;;;;;;;4.10;1.60;;;;;;;;;;5010950;28;20910;-53
2022/07/09 10:22:35;;;;;;;1.90;1.40;;;;;;;;;;5011181;28;20401;-53
2022/07/09 10:25:01;;;;;;;1.90;1.70;;;;;;;;;;5011478;28;20565;-55
2022/07/09 10:27:27;;;;;;;3.33;1.60;;;;;;;;;;5011063;28;20466;-53
2022/07/09 10:29:53;;;;;;;2.43;2.23;;;;;;;;;;5010875;28;20943;-55
2022/07/09 10:32:29;;;;;;;2.13;1.80;;;;;;;;;;5011122;28;20811;-53
2022/07/09 10:35:02;;;;;;;2.77;2.53;;;;;;;;;;5011526;28;20464;-53
2022/07/09 10:37:42;;;;;;;4.50;2.30;;;;;;;;;;5010849;28;20446;-53
2022/07/09 10:40:09;;;;;;;2.63;2.30;;;;;;;;;;4991575;28;20418;-53
2022/07/09 10:42:35;;;;;;;3.37;2.10;;;;;;;;;;4993668;28;20418;-56
2022/07/09 10:45:02;;;;;;;3.87;2.60;;;;;;;;;;5014675;28;20473;-53
2022/07/09 10:47:41;;;;;;;2.10;1.90;;;;;;;;;;5014545;28;20938;-54
2022/07/09 10:50:07;;;;;;;3.80;2.20;;;;;;;;;;5014263;28;20421;-55
2022/07/09 10:52:34;;;;;;;2.50;2.17;;;;;;;;;;5014236;28;20415;-55
2022/07/09 10:55:00;;;;;;;9.27;2.30;;;;;;;;;;5014383;28;20416;-53
2022/07/09 10:57:26;;;;;;;1.90;1.80;;;;;;;;;;5014683;28;20441;-53
2022/07/09 10:59:52;;;;;;;2.10;2.00;;;;;;;;;;5014437;28;20453;-54
2022/07/09 11:02:21;;;;;;;2.10;1.90;;;;;;;;;;5014002;28;20458;-54
2022/07/09 11:04:51;;;;;;;3.57;2.40;;;;;;;;;;5014498;28;20946;-54
2022/07/09 11:07:21;;;;;;;2.60;1.97;;;;;;;;;;5014167;28;20435;-54
2022/07/09 11:09:47;;;;;;;3.27;2.60;;;;;;;;;;5014308;28;20407;-54
2022/07/09 11:12:17;;;;;;;3.47;2.03;;;;;;;;;;5012596;28;20910;-55
2022/07/09 11:14:46;;;;;;;3.57;2.27;;;;;;;;;;5014272;28;20413;-53
2022/07/09 11:17:19;;;;;;;2.20;2.00;;;;;;;;;;5013617;28;20434;-53
2022/07/09 11:19:47;;;;;;;4.50;3.97;;;;;;;;;;5013933;28;20899;-54
2022/07/09 11:22:15;;;;;;;2.87;2.30;;;;;;;;;;5013623;28;20448;-54
2022/07/09 11:24:41;;;;;;;2.70;2.00;;;;;;;;;;5014061;28;20539;-53
2022/07/09 11:27:08;;;;;;;2.70;1.90;;;;;;;;;;5013623;28;20425;-53
2022/07/09 11:29:35;;;;;;;4.00;3.60;;;;;;;;;;5013836;28;20408;-54
2022/07/09 11:32:01;;;;;;;4.77;3.60;;;;;;;;;;5013396;28;20403;-54
2022/07/09 11:34:29;;;;;;;2.00;1.50;;;;;;;;;;5013666;28;20426;-54
2022/07/09 11:36:55;;;;;;;2.20;2.00;;;;;;;;;;5013631;28;20431;-54
2022/07/09 11:39:26;;;;;;;2.47;2.27;;;;;;;;;;5013512;28;20458;-55
2022/07/09 11:41:52;;;;;;;1.77;1.67;;;;;;;;;;5013215;28;20914;-54
2022/07/09 11:44:21;;;;;;;1.57;1.47;;;;;;;;;;5013625;28;20450;-54
2022/07/09 11:46:59;;;;;;;1.80;1.53;;;;;;;;;;5013351;28;20419;-56
2022/07/09 11:49:32;;;;;;;3.30;3.00;;;;;;;;;;5013565;28;20402;-54
2022/07/09 11:51:58;;;;;;;2.33;1.90;;;;;;;;;;5013048;28;20471;-56
2022/07/09 11:54:28;;;;;;;2.03;1.60;;;;;;;;;;5012914;28;20499;-56
2022/07/09 11:56:53;;;;;;;1.37;1.27;;;;;;;;;;5013309;28;20446;-54
2022/07/09 11:59:33;;;;;;;2.60;1.40;;;;;;;;;;5013643;28;20407;-53
2022/07/09 12:01:59;;;;;;;1.70;1.60;;;;;;;;;;5012903;28;20561;-55
2022/07/09 12:04:29;;;;;;;1.50;1.40;;;;;;;;;;5013512;28;20508;-54
2022/07/09 12:06:55;;;;;;;1.70;1.60;;;;;;;;;;5012902;28;20965;-55
2022/07/09 12:09:31;;;;;;;1.60;1.50;;;;;;;;;;5012802;28;20614;-53
2022/07/09 12:11:57;;;;;;;2.80;1.73;;;;;;;;;;5012925;28;20754;-53
2022/07/09 12:14:23;;;;;;;1.80;1.70;;;;;;;;;;5013163;28;20410;-53
2022/07/09 12:16:49;;;;;;;1.80;1.70;;;;;;;;;;5013023;28;20418;-53
2022/07/09 12:19:15;;;;;;;1.80;1.70;;;;;;;;;;5012922;28;20486;-53
2022/07/09 12:21:41;;;;;;;2.60;1.70;;;;;;;;;;5012442;28;20422;-53
2022/07/09 12:24:07;;;;;;;1.67;1.57;;;;;;;;;;5012528;28;20461;-54
2022/07/09 12:26:33;;;;;;;2.50;2.17;;;;;;;;;;5012678;28;20403;-55
2022/07/09 12:28:59;;;;;;;3.00;1.80;;;;;;;;;;5012711;28;20494;-54
2022/07/09 12:31:25;;;;;;;2.40;2.30;;;;;;;;;;5012566;28;20407;-53
2022/07/09 12:33:51;;;;;;;1.80;1.70;;;;;;;;;;5012973;28;20521;-54
2022/07/09 12:36:17;;;;;;;2.00;1.47;;;;;;;;;;5012955;28;20414;-53
2022/07/09 12:38:43;;;;;;;3.43;2.93;;;;;;;;;;5012425;28;20457;-54
2022/07/09 12:41:09;;;;;;;2.10;2.00;;;;;;;;;;5012294;28;20422;-55
2022/07/09 12:43:35;;;;;;;2.70;2.50;;;;;;;;;;5012852;28;20458;-53
2022/07/09 12:46:01;;;;;;;5.00;3.00;;;;;;;;;;5012808;28;20453;-52
2022/07/09 12:48:27;;;;;;;6.33;4.40;;;;;;;;;;5012535;28;20418;-52
2022/07/09 12:50:53;;;;;;;4.63;4.33;;;;;;;;;;5012211;28;20413;-52
2022/07/09 12:53:19;;;;;;;5.33;4.83;;;;;;;;;;5012621;28;20403;-52
2022/07/09 12:55:47;;;;;;;5.10;4.60;;;;;;;;;;5012359;28;20417;-52
2022/07/09 12:58:13;;;;;;;4.90;4.50;;;;;;;;;;5012587;28;20422;-52
2022/07/09 13:00:39;;;;;;;7.30;5.67;;;;;;;;;;5012018;28;20410;-54
2022/07/09 13:03:05;;;;;;;6.67;5.90;;;;;;;;;;5012120;28;20760;-54
2022/07/09 13:05:31;;;;;;;5.30;4.90;;;;;;;;;;5011893;28;20992;-53
2022/07/09 13:07:57;;;;;;;8.93;6.80;;;;;;;;;;5011372;28;21048;-54
2022/07/09 13:10:23;;;;;;;5.53;5.03;;;;;;;;;;5012329;28;20445;-57
2022/07/09 13:12:50;;;;;;;6.03;5.53;;;;;;;;;;5012103;28;20396;-57
2022/07/09 13:15:20;;;;;;;7.30;6.63;;;;;;;;;;5012148;28;20511;-56
2022/07/09 13:17:47;;;;;;;7.47;6.70;;;;;;;;;;5009530;28;20456;-57
2022/07/09 13:20:13;;;;;;;6.70;6.10;;;;;;;;;;5012189;28;20438;-56
2022/07/09 13:22:39;;;;;;;6.77;6.17;;;;;;;;;;5011592;28;20427;-55
2022/07/09 13:25:05;;;;;;;8.20;7.40;;;;;;;;;;5011656;28;20455;-56
2022/07/09 13:27:31;;;;;;;8.23;7.50;;;;;;;;;;5011867;28;20518;-56
2022/07/09 13:29:57;;;;;;;12.30;8.90;;;;;;;;;;5011795;28;20494;-56
2022/07/09 13:32:23;;;;;;;12.10;9.00;;;;;;;;;;5010314;28;20419;-57
2022/07/09 13:34:50;;;;;;;10.10;9.13;;;;;;;;;;5011952;28;20415;-57
2022/07/09 13:37:16;;;;;;;11.40;10.30;;;;;;;;;;5011429;28;20443;-56
2022/07/09 13:39:42;;;;;;;12.80;10.53;;;;;;;;;;5011562;28;20402;-56
2022/07/09 13:42:08;;;;;;;11.57;9.87;;;;;;;;;;5010023;28;20411;-56
2022/07/09 13:44:34;;;;;;;12.60;10.00;;;;;;;;;;5010448;28;20534;-56
2022/07/09 13:47:01;;;;;;;10.90;9.80;;;;;;;;;;5009902;28;20558;-56
2022/07/09 13:49:27;;;;;;;10.80;9.20;;;;;;;;;;5010803;28;20399;-56
2022/07/09 13:51:53;;;;;;;9.77;8.90;;;;;;;;;;5010758;28;20419;-56
2022/07/09 13:54:19;;;;;;;8.97;8.20;;;;;;;;;;5011713;28;20737;-56
2022/07/09 13:56:45;;;;;;;9.03;7.40;;;;;;;;;;5011509;28;20479;-56
2022/07/09 13:59:11;;;;;;;9.20;8.10;;;;;;;;;;5011556;28;20921;-57
2022/07/09 14:01:37;;;;;;;8.20;7.60;;;;;;;;;;5010972;28;20444;-57
2022/07/09 14:04:03;;;;;;;7.10;6.40;;;;;;;;;;5011624;28;20452;-56
2022/07/09 14:06:30;;;;;;;5.70;5.30;;;;;;;;;;5011431;28;20411;-57
2022/07/09 14:08:56;;;;;;;6.60;6.00;;;;;;;;;;5011519;28;20788;-57
2022/07/09 14:11:22;;;;;;;5.70;5.20;;;;;;;;;;5011044;28;20402;-57
2022/07/09 14:13:49;;;;;;;5.77;5.17;;;;;;;;;;5011612;28;20407;-57
2022/07/09 14:16:15;;;;;;;5.73;4.40;;;;;;;;;;5011391;28;20402;-57
2022/07/09 14:18:41;;;;;;;5.77;5.27;;;;;;;;;;4993979;28;20565;-57
2022/07/09 14:21:07;;;;;;;5.37;4.90;;;;;;;;;;4995254;28;20887;-56
2022/07/09 14:23:33;;;;;;;6.70;5.53;;;;;;;;;;5014033;28;20442;-57
2022/07/09 14:25:59;;;;;;;4.60;4.20;;;;;;;;;;5015346;28;20406;-57
2022/07/09 14:28:25;;;;;;;4.47;4.10;;;;;;;;;;5014721;28;20439;-57
2022/07/09 14:30:51;;;;;;;5.43;4.90;;;;;;;;;;5014696;28;20410;-57
2022/07/09 14:33:17;;;;;;;4.80;4.37;;;;;;;;;;5014831;28;20423;-57
2022/07/09 14:35:43;;;;;;;4.70;4.30;;;;;;;;;;5014834;28;20411;-57
2022/07/09 14:38:09;;;;;;;4.70;4.23;;;;;;;;;;5014348;28;20455;-57
2022/07/09 14:40:35;;;;;;;3.80;3.30;;;;;;;;;;5014365;28;20465;-57
2022/07/09 14:43:02;;;;;;;3.63;3.43;;;;;;;;;;5014639;28;20422;-57